sensor_id;sensor_type;location;lat;lon;timestamp;pressure;altitude;pressure_sealevel;temperature;humidity
61900;BME280;47853;55.890;37.664;2023-09-19T00:00:49;99846.63;;;13.92;100.00
61900;BME280;47853;55.890;37.664;2023-09-19T00:03:15;99850.84;;;13.87;100.00
61900;BME280;47853;55.890;37.664;2023-09-19T00:05:40;99833.88;;;14.03;100.00
61900;BME280;47853;55.890;37.664;2023-09-19T00:08:05;99854.38;;;14.02;100.00
61900;BME280;47853;55.890;37.664;2023-09-19T00:10:32;99828.72;;;13.46;100.00
61900;BME280;47853;55.890;37.664;2023-09-19T00:12:58;99840.28;;;13.70;100.00
61900;BME280;47853;55.890;37.664;2023-09-19T00:15:26;99836.69;;;13.78;100.00
61900;BME280;47853;55.890;37.664;2023-09-19T00:17:52;99844.75;;;14.16;100.00
61900;BME280;47853;55.890;37.664;2023-09-19T00:20:17;99857.34;;;14.99;100.00
61900;BME280;47853;55.890;37.664;2023-09-19T00:22:43;99862.03;;;14.82;100.00
61900;BME280;47853;55.890;37.664;2023-09-19T00:25:09;99840.59;;;14.67;100.00
61900;BME280;47853;55.890;37.664;2023-09-19T00:27:34;99856.94;;;14.34;100.00
61900;BME280;47853;55.890;37.664;2023-09-19T00:29:59;99842.13;;;14.85;100.00
61900;BME280;47853;55.890;37.664;2023-09-19T00:32:25;99857.97;;;15.01;100.00
61900;BME280;47853;55.890;37.664;2023-09-19T00:34:50;99856.03;;;15.25;100.00
61900;BME280;47853;55.890;37.664;2023-09-19T00:37:15;99864.88;;;15.26;100.00
61900;BME280;47853;55.890;37.664;2023-09-19T00:39:41;99837.31;;;15.10;100.00
61900;BME280;47853;55.890;37.664;2023-09-19T00:42:06;99830.81;;;15.34;99.33
61900;BME280;47853;55.890;37.664;2023-09-19T00:44:32;99849.47;;;15.28;99.51
61900;BME280;47853;55.890;37.664;2023-09-19T00:46:57;99828.69;;;15.30;98.13
61900;BME280;47853;55.890;37.664;2023-09-19T00:49:22;99851.25;;;14.90;100.00
61900;BME280;47853;55.890;37.664;2023-09-19T00:51:48;99849.56;;;15.56;98.17
61900;BME280;47853;55.890;37.664;2023-09-19T00:54:15;99849.28;;;14.31;100.00
61900;BME280;47853;55.890;37.664;2023-09-19T00:56:41;99844.59;;;15.01;100.00
61900;BME280;47853;55.890;37.664;2023-09-19T00:59:07;99841.47;;;14.98;100.00
61900;BME280;47853;55.890;37.664;2023-09-19T01:01:32;99839.16;;;14.79;100.00
61900;BME280;47853;55.890;37.664;2023-09-19T01:03:58;99835.66;;;15.09;100.00
61900;BME280;47853;55.890;37.664;2023-09-19T01:06:23;99840.59;;;14.37;100.00
61900;BME280;47853;55.890;37.664;2023-09-19T01:08:49;99844.53;;;14.56;100.00
61900;BME280;47853;55.890;37.664;2023-09-19T01:11:22;99849.00;;;14.64;100.00
61900;BME280;47853;55.890;37.664;2023-09-19T01:13:58;99859.25;;;15.05;100.00
61900;BME280;47853;55.890;37.664;2023-09-19T01:30:13;99829.69;;;14.92;100.00
61900;BME280;47853;55.890;37.664;2023-09-19T01:32:39;99840.38;;;14.77;100.00
61900;BME280;47853;55.890;37.664;2023-09-19T01:35:05;99843.84;;;15.22;100.00
61900;BME280;47853;55.890;37.664;2023-09-19T01:37:31;99827.91;;;15.14;100.00
61900;BME280;47853;55.890;37.664;2023-09-19T01:40:03;99822.22;;;14.34;100.00
61900;BME280;47853;55.890;37.664;2023-09-19T01:42:43;99835.50;;;14.57;100.00
61900;BME280;47853;55.890;37.664;2023-09-19T01:45:12;99830.38;;;15.01;100.00
61900;BME280;47853;55.890;37.664;2023-09-19T01:47:48;99830.19;;;15.17;100.00
61900;BME280;47853;55.890;37.664;2023-09-19T01:53:15;99832.19;;;15.67;99.59
61900;BME280;47853;55.890;37.664;2023-09-19T01:55:48;99809.97;;;15.88;97.60
61900;BME280;47853;55.890;37.664;2023-09-19T01:58:33;99808.03;;;16.04;94.41
61900;BME280;47853;55.890;37.664;2023-09-19T02:01:00;99826.34;;;15.57;98.37
61900;BME280;47853;55.890;37.664;2023-09-19T02:03:26;99817.56;;;15.48;99.65
61900;BME280;47853;55.890;37.664;2023-09-19T02:05:53;99816.22;;;15.95;96.34
61900;BME280;47853;55.890;37.664;2023-09-19T02:08:19;99809.69;;;15.61;96.99
61900;BME280;47853;55.890;37.664;2023-09-19T02:10:45;99807.94;;;15.90;95.43
61900;BME280;47853;55.890;37.664;2023-09-19T02:13:11;99785.13;;;15.79;94.80
61900;BME280;47853;55.890;37.664;2023-09-19T02:15:36;99794.00;;;15.36;99.32
61900;BME280;47853;55.890;37.664;2023-09-19T02:18:02;99800.88;;;15.46;99.95
61900;BME280;47853;55.890;37.664;2023-09-19T02:20:27;99787.56;;;15.16;100.00
61900;BME280;47853;55.890;37.664;2023-09-19T02:22:53;99801.81;;;14.41;100.00
61900;BME280;47853;55.890;37.664;2023-09-19T02:25:18;99805.63;;;14.24;100.00
61900;BME280;47853;55.890;37.664;2023-09-19T02:27:43;99791.13;;;14.03;100.00
61900;BME280;47853;55.890;37.664;2023-09-19T02:30:09;99794.50;;;14.20;100.00
61900;BME280;47853;55.890;37.664;2023-09-19T02:32:35;99787.69;;;14.32;100.00
61900;BME280;47853;55.890;37.664;2023-09-19T02:35:00;99806.31;;;14.41;100.00
61900;BME280;47853;55.890;37.664;2023-09-19T02:37:26;99784.94;;;14.02;100.00
61900;BME280;47853;55.890;37.664;2023-09-19T02:39:51;99801.22;;;14.31;100.00
61900;BME280;47853;55.890;37.664;2023-09-19T02:42:16;99780.84;;;14.15;100.00
61900;BME280;47853;55.890;37.664;2023-09-19T02:44:42;99790.63;;;14.38;100.00
61900;BME280;47853;55.890;37.664;2023-09-19T02:47:07;99787.34;;;13.97;100.00
61900;BME280;47853;55.890;37.664;2023-09-19T02:49:33;99792.66;;;14.35;100.00
61900;BME280;47853;55.890;37.664;2023-09-19T02:51:58;99790.00;;;14.50;100.00
61900;BME280;47853;55.890;37.664;2023-09-19T02:54:24;99791.13;;;14.41;100.00
61900;BME280;47853;55.890;37.664;2023-09-19T02:56:49;99801.56;;;13.89;100.00
61900;BME280;47853;55.890;37.664;2023-09-19T02:59:14;99813.06;;;14.13;100.00
61900;BME280;47853;55.890;37.664;2023-09-19T03:01:43;99801.53;;;13.51;100.00
61900;BME280;47853;55.890;37.664;2023-09-19T03:04:08;99802.25;;;13.37;100.00
61900;BME280;47853;55.890;37.664;2023-09-19T03:06:34;99802.22;;;13.68;100.00
61900;BME280;47853;55.890;37.664;2023-09-19T03:08:59;99808.63;;;13.27;100.00
61900;BME280;47853;55.890;37.664;2023-09-19T03:11:25;99805.59;;;14.09;100.00
61900;BME280;47853;55.890;37.664;2023-09-19T03:13:54;99802.38;;;14.13;100.00
61900;BME280;47853;55.890;37.664;2023-09-19T03:16:19;99797.63;;;13.30;100.00
61900;BME280;47853;55.890;37.664;2023-09-19T03:18:44;99782.81;;;13.59;100.00
61900;BME280;47853;55.890;37.664;2023-09-19T03:21:10;99812.97;;;13.60;100.00
61900;BME280;47853;55.890;37.664;2023-09-19T03:23:35;99814.16;;;13.26;100.00
61900;BME280;47853;55.890;37.664;2023-09-19T03:26:01;99801.88;;;13.40;100.00
61900;BME280;47853;55.890;37.664;2023-09-19T03:28:26;99807.03;;;13.49;100.00
61900;BME280;47853;55.890;37.664;2023-09-19T03:31:02;99805.16;;;13.58;100.00
61900;BME280;47853;55.890;37.664;2023-09-19T03:33:28;99790.09;;;14.27;100.00
61900;BME280;47853;55.890;37.664;2023-09-19T03:35:54;99813.44;;;14.10;100.00
61900;BME280;47853;55.890;37.664;2023-09-19T03:38:20;99809.28;;;13.61;100.00
61900;BME280;47853;55.890;37.664;2023-09-19T03:40:45;99790.09;;;13.89;100.00
61900;BME280;47853;55.890;37.664;2023-09-19T03:43:11;99776.28;;;14.54;100.00
61900;BME280;47853;55.890;37.664;2023-09-19T03:45:36;99806.81;;;13.83;100.00
61900;BME280;47853;55.890;37.664;2023-09-19T03:48:06;99798.84;;;13.98;100.00
61900;BME280;47853;55.890;37.664;2023-09-19T03:50:33;99779.28;;;13.82;100.00
61900;BME280;47853;55.890;37.664;2023-09-19T03:52:58;99787.22;;;13.67;100.00
61900;BME280;47853;55.890;37.664;2023-09-19T03:55:23;99771.63;;;13.79;100.00
61900;BME280;47853;55.890;37.664;2023-09-19T03:57:49;99790.66;;;13.99;100.00
61900;BME280;47853;55.890;37.664;2023-09-19T04:00:14;99773.16;;;13.97;100.00
61900;BME280;47853;55.890;37.664;2023-09-19T04:02:40;99775.22;;;14.25;100.00
61900;BME280;47853;55.890;37.664;2023-09-19T04:05:05;99773.84;;;14.29;100.00
61900;BME280;47853;55.890;37.664;2023-09-19T04:07:31;99771.16;;;14.14;100.00
61900;BME280;47853;55.890;37.664;2023-09-19T04:09:56;99787.91;;;13.92;100.00
61900;BME280;47853;55.890;37.664;2023-09-19T04:12:22;99784.69;;;13.74;100.00
61900;BME280;47853;55.890;37.664;2023-09-19T04:14:49;99767.38;;;14.08;100.00
61900;BME280;47853;55.890;37.664;2023-09-19T04:17:15;99783.25;;;14.40;100.00
61900;BME280;47853;55.890;37.664;2023-09-19T04:19:40;99789.91;;;14.44;100.00
61900;BME280;47853;55.890;37.664;2023-09-19T04:22:06;99785.28;;;14.38;100.00
61900;BME280;47853;55.890;37.664;2023-09-19T04:24:31;99767.66;;;14.82;100.00
61900;BME280;47853;55.890;37.664;2023-09-19T04:26:56;99766.78;;;14.66;100.00
61900;BME280;47853;55.890;37.664;2023-09-19T04:29:21;99760.00;;;15.15;100.00
61900;BME280;47853;55.890;37.664;2023-09-19T04:31:47;99765.91;;;15.11;100.00
61900;BME280;47853;55.890;37.664;2023-09-19T04:34:12;99761.56;;;14.88;100.00
61900;BME280;47853;55.890;37.664;2023-09-19T04:36:38;99776.25;;;15.50;100.00
61900;BME280;47853;55.890;37.664;2023-09-19T04:39:03;99757.59;;;14.84;100.00
61900;BME280;47853;55.890;37.664;2023-09-19T04:41:28;99751.47;;;15.05;100.00
61900;BME280;47853;55.890;37.664;2023-09-19T04:43:54;99776.16;;;15.44;100.00
61900;BME280;47853;55.890;37.664;2023-09-19T04:46:19;99757.88;;;15.11;100.00
61900;BME280;47853;55.890;37.664;2023-09-19T04:48:45;99752.22;;;15.35;100.00
61900;BME280;47853;55.890;37.664;2023-09-19T04:51:10;99754.28;;;15.18;100.00
61900;BME280;47853;55.890;37.664;2023-09-19T04:53:35;99756.84;;;14.75;100.00
61900;BME280;47853;55.890;37.664;2023-09-19T04:56:01;99771.88;;;14.91;100.00
61900;BME280;47853;55.890;37.664;2023-09-19T04:58:26;99767.94;;;15.08;100.00
61900;BME280;47853;55.890;37.664;2023-09-19T05:00:51;99771.50;;;14.94;100.00
61900;BME280;47853;55.890;37.664;2023-09-19T05:03:17;99774.28;;;14.86;100.00
61900;BME280;47853;55.890;37.664;2023-09-19T05:05:42;99750.47;;;15.28;100.00
61900;BME280;47853;55.890;37.664;2023-09-19T05:08:08;99758.25;;;15.66;100.00
61900;BME280;47853;55.890;37.664;2023-09-19T05:10:34;99770.94;;;15.79;100.00
61900;BME280;47853;55.890;37.664;2023-09-19T05:12:59;99762.31;;;15.84;100.00
61900;BME280;47853;55.890;37.664;2023-09-19T05:15:25;99754.28;;;16.69;94.85
61900;BME280;47853;55.890;37.664;2023-09-19T05:17:51;99757.75;;;16.63;95.87
61900;BME280;47853;55.890;37.664;2023-09-19T05:20:17;99752.84;;;16.38;97.51
61900;BME280;47853;55.890;37.664;2023-09-19T05:22:43;99749.47;;;15.94;100.00
61900;BME280;47853;55.890;37.664;2023-09-19T05:25:12;99757.59;;;16.07;100.00
61900;BME280;47853;55.890;37.664;2023-09-19T05:27:37;99757.78;;;16.06;100.00
61900;BME280;47853;55.890;37.664;2023-09-19T05:30:03;99750.03;;;16.18;100.00
61900;BME280;47853;55.890;37.664;2023-09-19T05:32:28;99752.09;;;16.16;100.00
61900;BME280;47853;55.890;37.664;2023-09-19T05:34:54;99753.16;;;16.57;99.20
61900;BME280;47853;55.890;37.664;2023-09-19T05:37:19;99752.28;;;16.49;98.57
61900;BME280;47853;55.890;37.664;2023-09-19T05:39:45;99750.72;;;16.27;100.00
61900;BME280;47853;55.890;37.664;2023-09-19T05:42:10;99728.72;;;16.38;100.00
61900;BME280;47853;55.890;37.664;2023-09-19T05:44:36;99758.09;;;16.53;99.51
61900;BME280;47853;55.890;37.664;2023-09-19T05:47:04;99741.44;;;16.29;100.00
61900;BME280;47853;55.890;37.664;2023-09-19T05:49:30;99757.34;;;17.08;97.73
61900;BME280;47853;55.890;37.664;2023-09-19T05:51:55;99739.00;;;17.12;95.05
61900;BME280;47853;55.890;37.664;2023-09-19T05:54:20;99747.44;;;16.66;98.90
61900;BME280;47853;55.890;37.664;2023-09-19T05:56:46;99733.63;;;16.28;100.00
61900;BME280;47853;55.890;37.664;2023-09-19T05:59:14;99746.56;;;17.01;99.57
61900;BME280;47853;55.890;37.664;2023-09-19T06:01:39;99751.31;;;16.99;98.01
61900;BME280;47853;55.890;37.664;2023-09-19T06:04:05;99749.63;;;16.91;98.28
61900;BME280;47853;55.890;37.664;2023-09-19T06:06:30;99740.09;;;16.89;99.26
61900;BME280;47853;55.890;37.664;2023-09-19T06:08:56;99755.50;;;17.08;95.63
61900;BME280;47853;55.890;37.664;2023-09-19T06:11:21;99752.22;;;17.20;97.61
61900;BME280;47853;55.890;37.664;2023-09-19T06:13:46;99742.06;;;17.08;96.30
61900;BME280;47853;55.890;37.664;2023-09-19T06:16:12;99735.13;;;17.41;95.00
61900;BME280;47853;55.890;37.664;2023-09-19T06:18:37;99728.03;;;17.06;98.86
61900;BME280;47853;55.890;37.664;2023-09-19T06:21:03;99732.19;;;16.67;100.00
61900;BME280;47853;55.890;37.664;2023-09-19T06:23:28;99723.38;;;17.49;95.81
61900;BME280;47853;55.890;37.664;2023-09-19T06:25:53;99732.66;;;17.60;97.38
61900;BME280;47853;55.890;37.664;2023-09-19T06:28:19;99733.66;;;17.38;98.83
61900;BME280;47853;55.890;37.664;2023-09-19T06:30:44;99738.03;;;18.27;94.89
61900;BME280;47853;55.890;37.664;2023-09-19T06:33:10;99718.84;;;18.10;93.48
61900;BME280;47853;55.890;37.664;2023-09-19T06:35:35;99739.78;;;18.67;90.38
61900;BME280;47853;55.890;37.664;2023-09-19T06:38:03;99725.13;;;19.47;83.08
61900;BME280;47853;55.890;37.664;2023-09-19T06:40:29;99727.84;;;19.40;81.27
61900;BME280;47853;55.890;37.664;2023-09-19T06:42:54;99741.78;;;19.95;79.31
61900;BME280;47853;55.890;37.664;2023-09-19T06:45:20;99728.03;;;20.22;78.24
61900;BME280;47853;55.890;37.664;2023-09-19T06:47:46;99730.00;;;20.33;78.56
61900;BME280;47853;55.890;37.664;2023-09-19T06:50:11;99726.66;;;19.94;80.00
61900;BME280;47853;55.890;37.664;2023-09-19T06:52:37;99739.63;;;21.58;69.85
61900;BME280;47853;55.890;37.664;2023-09-19T06:55:02;99724.97;;;22.61;65.36
61900;BME280;47853;55.890;37.664;2023-09-19T06:57:28;99723.00;;;22.21;64.39
61900;BME280;47853;55.890;37.664;2023-09-19T06:59:53;99729.03;;;21.56;68.10
61900;BME280;47853;55.890;37.664;2023-09-19T07:02:19;99731.22;;;22.14;66.07
61900;BME280;47853;55.890;37.664;2023-09-19T07:04:44;99723.91;;;23.32;60.13
61900;BME280;47853;55.890;37.664;2023-09-19T07:07:09;99731.94;;;24.29;53.22
61900;BME280;47853;55.890;37.664;2023-09-19T07:09:35;99716.72;;;24.73;51.92
61900;BME280;47853;55.890;37.664;2023-09-19T07:12:00;99719.06;;;24.42;53.62
61900;BME280;47853;55.890;37.664;2023-09-19T07:14:26;99708.75;;;24.22;53.34
61900;BME280;47853;55.890;37.664;2023-09-19T07:16:51;99710.97;;;22.28;59.98
61900;BME280;47853;55.890;37.664;2023-09-19T07:19:16;99715.91;;;21.18;68.55
61900;BME280;47853;55.890;37.664;2023-09-19T07:21:42;99725.00;;;21.66;70.46
61900;BME280;47853;55.890;37.664;2023-09-19T07:24:07;99709.91;;;22.41;67.32
61900;BME280;47853;55.890;37.664;2023-09-19T07:26:33;99719.91;;;21.27;72.09
61900;BME280;47853;55.890;37.664;2023-09-19T07:28:58;99714.28;;;20.98;75.74
61900;BME280;47853;55.890;37.664;2023-09-19T07:31:23;99718.22;;;21.14;74.56
61900;BME280;47853;55.890;37.664;2023-09-19T07:33:49;99720.56;;;19.73;83.76
61900;BME280;47853;55.890;37.664;2023-09-19T07:36:14;99672.25;;;18.89;91.20
61900;BME280;47853;55.890;37.664;2023-09-19T07:38:40;99705.47;;;18.62;97.53
61900;BME280;47853;55.890;37.664;2023-09-19T07:41:07;99717.03;;;19.47;93.05
61900;BME280;47853;55.890;37.664;2023-09-19T07:43:32;99715.66;;;20.51;85.95
61900;BME280;47853;55.890;37.664;2023-09-19T07:45:58;99724.41;;;19.59;90.94
61900;BME280;47853;55.890;37.664;2023-09-19T07:48:27;99721.00;;;19.70;93.41
61900;BME280;47853;55.890;37.664;2023-09-19T07:50:52;99712.75;;;20.53;86.38
61900;BME280;47853;55.890;37.664;2023-09-19T07:53:18;99700.16;;;20.09;88.24
61900;BME280;47853;55.890;37.664;2023-09-19T07:55:43;99712.44;;;20.24;87.13
61900;BME280;47853;55.890;37.664;2023-09-19T07:58:08;99678.00;;;20.94;82.46
61900;BME280;47853;55.890;37.664;2023-09-19T08:00:34;99701.56;;;21.17;77.57
61900;BME280;47853;55.890;37.664;2023-09-19T08:02:59;99704.00;;;20.57;83.58
61900;BME280;47853;55.890;37.664;2023-09-19T08:05:24;99699.41;;;20.02;86.70
61900;BME280;47853;55.890;37.664;2023-09-19T08:07:50;99696.41;;;20.66;85.17
61900;BME280;47853;55.890;37.664;2023-09-19T08:10:15;99687.97;;;20.44;85.42
61900;BME280;47853;55.890;37.664;2023-09-19T08:12:42;99698.44;;;20.71;83.20
61900;BME280;47853;55.890;37.664;2023-09-19T08:15:08;99702.19;;;20.70;83.62
61900;BME280;47853;55.890;37.664;2023-09-19T08:17:34;99692.25;;;20.33;84.73
61900;BME280;47853;55.890;37.664;2023-09-19T08:20:00;99700.97;;;19.59;94.23
61900;BME280;47853;55.890;37.664;2023-09-19T08:22:27;99680.59;;;19.45;95.73
61900;BME280;47853;55.890;37.664;2023-09-19T08:24:53;99664.47;;;19.63;95.17
61900;BME280;47853;55.890;37.664;2023-09-19T08:27:21;99683.88;;;19.72;93.78
61900;BME280;47853;55.890;37.664;2023-09-19T08:29:46;99670.09;;;19.62;92.35
61900;BME280;47853;55.890;37.664;2023-09-19T08:32:12;99687.47;;;19.40;94.24
61900;BME280;47853;55.890;37.664;2023-09-19T08:34:37;99678.66;;;19.52;95.46
61900;BME280;47853;55.890;37.664;2023-09-19T08:37:03;99677.63;;;19.53;94.44
61900;BME280;47853;55.890;37.664;2023-09-19T08:39:28;99673.41;;;20.08;93.07
61900;BME280;47853;55.890;37.664;2023-09-19T08:41:59;99666.97;;;20.65;87.88
61900;BME280;47853;55.890;37.664;2023-09-19T08:44:25;99667.38;;;21.11;84.35
61900;BME280;47853;55.890;37.664;2023-09-19T08:46:54;99657.69;;;20.42;88.35
61900;BME280;47853;55.890;37.664;2023-09-19T08:52:16;99644.81;;;20.75;88.09
61900;BME280;47853;55.890;37.664;2023-09-19T08:54:47;99650.84;;;21.07;85.24
61900;BME280;47853;55.890;37.664;2023-09-19T08:57:15;99637.72;;;20.80;87.41
61900;BME280;47853;55.890;37.664;2023-09-19T08:59:43;99641.91;;;20.76;89.32
61900;BME280;47853;55.890;37.664;2023-09-19T09:02:11;99650.97;;;21.12;86.14
61900;BME280;47853;55.890;37.664;2023-09-19T09:04:40;99640.97;;;21.79;80.32
61900;BME280;47853;55.890;37.664;2023-09-19T09:07:13;99649.00;;;21.20;84.36
61900;BME280;47853;55.890;37.664;2023-09-19T09:09:39;99650.72;;;21.80;81.17
61900;BME280;47853;55.890;37.664;2023-09-19T09:12:05;99650.06;;;21.42;82.29
61900;BME280;47853;55.890;37.664;2023-09-19T09:14:30;99642.66;;;21.26;82.25
61900;BME280;47853;55.890;37.664;2023-09-19T09:16:56;99639.44;;;21.71;80.73
61900;BME280;47853;55.890;37.664;2023-09-19T09:19:21;99628.88;;;21.70;81.09
61900;BME280;47853;55.890;37.664;2023-09-19T09:21:46;99635.75;;;21.42;82.25
61900;BME280;47853;55.890;37.664;2023-09-19T09:24:28;99629.44;;;20.94;84.97
61900;BME280;47853;55.890;37.664;2023-09-19T09:26:54;99637.50;;;20.63;89.25
61900;BME280;47853;55.890;37.664;2023-09-19T09:29:40;99644.84;;;21.95;82.54
61900;BME280;47853;55.890;37.664;2023-09-19T09:32:26;99648.50;;;21.77;80.98
61900;BME280;47853;55.890;37.664;2023-09-19T09:34:56;99645.53;;;21.55;81.37
61900;BME280;47853;55.890;37.664;2023-09-19T09:37:23;99657.25;;;21.37;84.18
61900;BME280;47853;55.890;37.664;2023-09-19T09:39:52;99652.31;;;20.72;88.88
61900;BME280;47853;55.890;37.664;2023-09-19T09:42:36;99651.66;;;21.08;86.18
61900;BME280;47853;55.890;37.664;2023-09-19T09:45:21;99651.13;;;21.29;85.53
61900;BME280;47853;55.890;37.664;2023-09-19T09:47:48;99652.69;;;21.49;84.81
61900;BME280;47853;55.890;37.664;2023-09-19T09:50:13;99647.84;;;21.27;83.54
61900;BME280;47853;55.890;37.664;2023-09-19T09:52:45;99637.31;;;21.97;80.55
61900;BME280;47853;55.890;37.664;2023-09-19T09:55:10;99635.25;;;22.28;78.29
61900;BME280;47853;55.890;37.664;2023-09-19T09:57:36;99638.72;;;22.53;74.55
61900;BME280;47853;55.890;37.664;2023-09-19T10:00:02;99639.09;;;22.44;75.49
61900;BME280;47853;55.890;37.664;2023-09-19T10:03:02;99618.09;;;22.35;77.93
61900;BME280;47853;55.890;37.664;2023-09-19T10:06:05;99630.22;;;23.36;70.04
61900;BME280;47853;55.890;37.664;2023-09-19T10:08:49;99602.06;;;23.37;68.82
61900;BME280;47853;55.890;37.664;2023-09-19T10:11:22;99605.75;;;23.48;70.94
61900;BME280;47853;55.890;37.664;2023-09-19T10:13:47;99617.19;;;23.04;71.55
61900;BME280;47853;55.890;37.664;2023-09-19T10:16:15;99610.13;;;23.03;74.67
61900;BME280;47853;55.890;37.664;2023-09-19T10:18:42;99621.63;;;23.10;72.13
61900;BME280;47853;55.890;37.664;2023-09-19T10:21:09;99584.50;;;23.62;69.41
61900;BME280;47853;55.890;37.664;2023-09-19T10:23:56;99602.81;;;24.33;65.53
61900;BME280;47853;55.890;37.664;2023-09-19T10:26:23;99561.09;;;24.67;62.33
61900;BME280;47853;55.890;37.664;2023-09-19T10:28:55;99570.84;;;25.23;59.54
61900;BME280;47853;55.890;37.664;2023-09-19T10:31:21;99561.16;;;25.00;61.91
61900;BME280;47853;55.890;37.664;2023-09-19T10:33:48;99545.41;;;25.02;59.92
61900;BME280;47853;55.890;37.664;2023-09-19T10:36:15;99592.25;;;25.19;60.45
61900;BME280;47853;55.890;37.664;2023-09-19T10:38:48;99556.72;;;25.26;60.97
61900;BME280;47853;55.890;37.664;2023-09-19T10:41:16;99561.75;;;25.07;60.74
61900;BME280;47853;55.890;37.664;2023-09-19T10:43:45;99531.91;;;24.25;62.40
61900;BME280;47853;55.890;37.664;2023-09-19T10:46:12;99527.53;;;24.24;65.48
61900;BME280;47853;55.890;37.664;2023-09-19T10:48:38;99582.47;;;24.58;63.06
61900;BME280;47853;55.890;37.664;2023-09-19T10:51:18;99566.50;;;24.67;64.44
61900;BME280;47853;55.890;37.664;2023-09-19T10:53:50;99543.47;;;25.88;58.34
61900;BME280;47853;55.890;37.664;2023-09-19T10:56:21;99535.72;;;26.23;54.13
61900;BME280;47853;55.890;37.664;2023-09-19T10:58:48;99544.66;;;25.12;59.21
61900;BME280;47853;55.890;37.664;2023-09-19T11:01:14;99563.84;;;26.65;55.33
61900;BME280;47853;55.890;37.664;2023-09-19T11:03:39;99522.19;;;26.64;54.44
61900;BME280;47853;55.890;37.664;2023-09-19T11:06:13;99550.34;;;25.10;60.08
61900;BME280;47853;55.890;37.664;2023-09-19T11:09:01;99572.75;;;24.13;65.96
61900;BME280;47853;55.890;37.664;2023-09-19T11:11:43;99545.75;;;24.01;68.62
61900;BME280;47853;55.890;37.664;2023-09-19T11:14:44;99510.59;;;24.39;66.76
61900;BME280;47853;55.890;37.664;2023-09-19T11:30:40;99528.25;;;25.39;61.54
61900;BME280;47853;55.890;37.664;2023-09-19T11:33:25;99558.78;;;25.14;64.08
61900;BME280;47853;55.890;37.664;2023-09-19T11:36:09;99547.66;;;24.78;66.07
61900;BME280;47853;55.890;37.664;2023-09-19T11:47:00;99538.25;;;24.36;72.36
61900;BME280;47853;55.890;37.664;2023-09-19T11:49:44;99518.72;;;25.37;65.45
61900;BME280;47853;55.890;37.664;2023-09-19T11:52:10;99524.72;;;25.39;65.88
61900;BME280;47853;55.890;37.664;2023-09-19T11:54:37;99536.59;;;26.49;57.25
61900;BME280;47853;55.890;37.664;2023-09-19T11:57:03;99528.53;;;25.91;59.62
61900;BME280;47853;55.890;37.664;2023-09-19T11:59:31;99534.69;;;25.66;63.24
61900;BME280;47853;55.890;37.664;2023-09-19T12:02:03;99518.84;;;26.26;60.05
61900;BME280;47853;55.890;37.664;2023-09-19T12:07:07;99526.25;;;26.46;58.76
61900;BME280;47853;55.890;37.664;2023-09-19T12:09:33;99513.06;;;24.40;69.54
61900;BME280;47853;55.890;37.664;2023-09-19T12:11:59;99510.28;;;25.33;66.05
61900;BME280;47853;55.890;37.664;2023-09-19T12:14:25;99519.91;;;25.08;67.47
61900;BME280;47853;55.890;37.664;2023-09-19T12:17:00;99507.03;;;24.93;69.43
61900;BME280;47853;55.890;37.664;2023-09-19T12:19:37;99470.38;;;26.13;63.18
61900;BME280;47853;55.890;37.664;2023-09-19T12:22:05;99482.31;;;25.96;63.98
61900;BME280;47853;55.890;37.664;2023-09-19T12:24:31;99492.50;;;25.58;65.04
61900;BME280;47853;55.890;37.664;2023-09-19T12:27:04;99481.66;;;25.68;65.27
61900;BME280;47853;55.890;37.664;2023-09-19T12:29:45;99454.66;;;26.41;59.79
61900;BME280;47853;55.890;37.664;2023-09-19T12:32:11;99444.41;;;25.10;67.04
61900;BME280;47853;55.890;37.664;2023-09-19T12:34:40;99463.09;;;24.69;70.61
61900;BME280;47853;55.890;37.664;2023-09-19T12:37:15;99475.06;;;26.48;61.72
61900;BME280;47853;55.890;37.664;2023-09-19T12:39:54;99446.66;;;25.98;62.38
61900;BME280;47853;55.890;37.664;2023-09-19T12:42:28;99438.72;;;25.75;62.06
61900;BME280;47853;55.890;37.664;2023-09-19T12:44:59;99483.31;;;24.51;72.71
61900;BME280;47853;55.890;37.664;2023-09-19T12:47:38;99462.75;;;24.93;71.21
61900;BME280;47853;55.890;37.664;2023-09-19T12:50:14;99456.88;;;25.06;70.01
61900;BME280;47853;55.890;37.664;2023-09-19T12:52:44;99424.81;;;25.61;66.55
61900;BME280;47853;55.890;37.664;2023-09-19T12:55:29;99463.63;;;27.03;59.12
61900;BME280;47853;55.890;37.664;2023-09-19T12:58:20;99439.34;;;25.93;62.84
61900;BME280;47853;55.890;37.664;2023-09-19T13:01:17;99472.53;;;25.95;66.13
61900;BME280;47853;55.890;37.664;2023-09-19T13:06:36;99473.66;;;24.05;78.45
61900;BME280;47853;55.890;37.664;2023-09-19T13:09:11;99416.44;;;25.84;66.88
61900;BME280;47853;55.890;37.664;2023-09-19T13:12:00;99413.00;;;25.35;69.33
61900;BME280;47853;55.890;37.664;2023-09-19T13:17:45;99400.09;;;25.78;67.41
61900;BME280;47853;55.890;37.664;2023-09-19T13:20:33;99446.00;;;25.54;70.67
61900;BME280;47853;55.890;37.664;2023-09-19T13:23:02;99412.13;;;25.93;69.40
61900;BME280;47853;55.890;37.664;2023-09-19T13:25:27;99434.50;;;26.21;64.44
61900;BME280;47853;55.890;37.664;2023-09-19T13:27:56;99401.00;;;25.26;70.76
61900;BME280;47853;55.890;37.664;2023-09-19T13:30:23;99428.13;;;27.24;61.50
61900;BME280;47853;55.890;37.664;2023-09-19T13:33:28;99436.22;;;28.45;55.42
61900;BME280;47853;55.890;37.664;2023-09-19T13:35:54;99433.47;;;28.50;54.49
61900;BME280;47853;55.890;37.664;2023-09-19T13:38:43;99430.97;;;28.19;54.92
61900;BME280;47853;55.890;37.664;2023-09-19T13:41:12;99420.81;;;29.43;50.30